createdAt,value
2022-08-03T00:00:20.052Z,77.63
2022-08-03T00:01:20.036Z,77.53
2022-08-03T00:02:20.051Z,77.43
2022-08-03T00:03:20.149Z,77.33
2022-08-03T00:04:20.024Z,77.33
2022-08-03T00:05:19.998Z,77.23
2022-08-03T00:06:19.989Z,77.13
2022-08-03T00:07:19.969Z,77.13
2022-08-03T00:08:19.963Z,77.37
2022-08-03T00:09:19.963Z,77.47
2022-08-03T00:10:19.948Z,77.37
2022-08-03T00:11:19.927Z,77.47
2022-08-03T00:12:19.928Z,77.57
2022-08-03T00:13:19.905Z,77.47
2022-08-03T00:14:20.845Z,77.57
2022-08-03T00:15:19.899Z,77.47
2022-08-03T00:16:19.872Z,77.57
2022-08-03T00:17:19.877Z,77.47
2022-08-03T00:18:19.849Z,77.57
2022-08-03T00:19:19.827Z,77.57
2022-08-03T00:20:19.850Z,77.67
2022-08-03T00:21:19.807Z,77.67
2022-08-03T00:22:19.799Z,77.57
2022-08-03T00:23:19.809Z,77.57
2022-08-03T00:24:19.776Z,77.77
2022-08-03T00:25:19.748Z,77.87
2022-08-03T00:26:19.752Z,77.97
2022-08-03T00:27:19.742Z,77.97
2022-08-03T00:28:19.746Z,78.07
2022-08-03T00:29:19.723Z,78.17
2022-08-03T00:30:19.712Z,78.17
2022-08-03T00:31:23.108Z,78.38
2022-08-03T00:32:20.701Z,78.38
2022-08-03T00:33:19.671Z,78.47
2022-08-03T00:34:29.164Z,78.61
2022-08-03T00:35:27.372Z,78.51
2022-08-03T00:36:20.643Z,78.31
2022-08-03T00:37:19.630Z,78.51
2022-08-03T00:38:19.620Z,78.51
2022-08-03T00:39:19.616Z,78.71
2022-08-03T00:40:19.595Z,78.71
2022-08-03T00:41:19.575Z,78.81
2022-08-03T00:42:19.571Z,78.81
2022-08-03T00:43:19.556Z,78.81
2022-08-03T00:44:19.566Z,78.61
2022-08-03T00:45:19.544Z,78.61
2022-08-03T00:46:21.894Z,78.61
2022-08-03T00:47:19.510Z,78.61
2022-08-03T00:48:29.628Z,78.61
2022-08-03T00:49:20.561Z,78.61
2022-08-03T00:50:19.517Z,78.61
2022-08-03T00:51:19.465Z,78.51
2022-08-03T00:52:19.684Z,78.41
2022-08-03T00:53:19.452Z,78.41
2022-08-03T00:54:19.453Z,78.55
2022-08-03T00:55:19.437Z,78.55
2022-08-03T00:56:19.407Z,78.45
2022-08-03T00:57:19.402Z,78.45
2022-08-03T00:58:19.384Z,78.55
2022-08-03T00:59:19.406Z,78.55
2022-08-03T01:00:21.311Z,78.65
2022-08-03T01:01:19.425Z,78.85
2022-08-03T01:02:19.345Z,78.85
2022-08-03T01:03:19.339Z,78.89
2022-08-03T01:04:19.336Z,78.99
2022-08-03T01:05:19.318Z,79.09
2022-08-03T01:06:19.313Z,79.29
2022-08-03T01:07:19.285Z,79.29
2022-08-03T01:08:19.266Z,79.29
2022-08-03T01:09:19.267Z,79.29
2022-08-03T01:10:19.266Z,79.49
2022-08-03T01:11:19.259Z,79.60
2022-08-03T01:12:19.228Z,79.60
2022-08-03T01:14:00.255Z,79.60
2022-08-03T01:14:20.260Z,79.60
2022-08-03T01:15:19.198Z,79.39
2022-08-03T01:16:19.181Z,79.49
2022-08-03T01:17:19.189Z,79.39
2022-08-03T01:18:19.157Z,79.49
2022-08-03T01:19:19.149Z,79.49
2022-08-03T01:20:19.131Z,79.49
2022-08-03T01:21:20.099Z,79.39
2022-08-03T01:22:19.104Z,79.39
2022-08-03T01:23:19.111Z,79.49
2022-08-03T01:24:19.096Z,79.60
2022-08-03T01:25:19.100Z,79.49
2022-08-03T01:26:19.055Z,79.49
2022-08-03T01:27:19.066Z,79.49
2022-08-03T01:28:19.040Z,79.60
2022-08-03T01:29:19.039Z,79.69
2022-08-03T01:30:19.022Z,79.80
2022-08-03T01:31:19.015Z,80.00
2022-08-03T01:33:02.226Z,80.10
2022-08-03T01:33:19.998Z,80.00
2022-08-03T01:34:18.966Z,80.00
2022-08-03T01:35:18.981Z,80.10
2022-08-03T01:36:18.952Z,80.10
2022-08-03T01:37:18.936Z,80.10
2022-08-03T01:38:18.935Z,80.00
2022-08-03T01:39:18.948Z,80.00
2022-08-03T01:40:18.907Z,80.00
2022-08-03T01:41:18.900Z,80.10
2022-08-03T01:42:18.888Z,80.24
2022-08-03T01:44:28.358Z,80.30
2022-08-03T01:44:29.239Z,80.24
2022-08-03T01:45:19.856Z,80.44
2022-08-03T01:46:18.850Z,80.54
2022-08-03T01:47:18.836Z,80.64
2022-08-03T01:48:18.833Z,80.64
2022-08-03T01:49:18.918Z,80.64
2022-08-03T01:50:18.800Z,80.54
2022-08-03T01:51:18.782Z,80.54
2022-08-03T01:52:19.157Z,80.54
2022-08-03T01:53:18.781Z,80.64
2022-08-03T01:54:18.764Z,80.64
2022-08-03T01:55:18.745Z,80.64
2022-08-03T01:56:18.728Z,80.64
2022-08-03T01:57:19.702Z,80.64
2022-08-03T01:58:18.704Z,80.74
2022-08-03T01:59:18.720Z,80.64
2022-08-03T02:00:18.674Z,80.64
2022-08-03T02:01:18.747Z,80.64
2022-08-03T02:02:33.379Z,80.64
2022-08-03T02:03:19.653Z,80.84
2022-08-03T02:04:18.638Z,81.04
2022-08-03T02:05:18.627Z,81.48
2022-08-03T02:06:59.866Z,81.48
2022-08-03T02:07:19.620Z,81.48
2022-08-03T02:08:18.592Z,81.38
2022-08-03T02:09:18.581Z,81.18
2022-08-03T02:10:34.590Z,80.88
2022-08-03T02:11:19.548Z,80.88
2022-08-03T02:12:18.815Z,80.98
2022-08-03T02:13:18.547Z,80.88
2022-08-03T02:14:18.518Z,80.98
2022-08-03T02:15:18.512Z,80.98
2022-08-03T02:16:18.502Z,81.08
2022-08-03T02:17:18.499Z,81.28
2022-08-03T02:18:19.474Z,81.18
2022-08-03T02:19:18.473Z,81.08
2022-08-03T02:20:18.445Z,81.08
2022-08-03T02:21:55.771Z,81.08
2022-08-03T02:22:20.384Z,81.08
2022-08-03T02:23:18.413Z,81.08
2022-08-03T02:24:18.422Z,80.98
2022-08-03T02:25:18.391Z,80.88
2022-08-03T02:26:18.379Z,80.98
2022-08-03T02:27:18.403Z,81.08
2022-08-03T02:28:18.361Z,81.08
2022-08-03T02:29:18.354Z,81.18
2022-08-03T02:30:18.334Z,81.28
2022-08-03T02:31:19.284Z,81.18
2022-08-03T02:32:18.651Z,81.18
2022-08-03T02:33:18.330Z,81.28
2022-08-03T02:34:18.330Z,81.18
2022-08-03T02:35:18.287Z,81.28
2022-08-03T02:36:19.228Z,81.18
2022-08-03T02:37:18.259Z,81.28
2022-08-03T02:38:18.239Z,81.28
2022-08-03T02:39:18.241Z,81.28
2022-08-03T02:40:18.231Z,81.28
2022-08-03T02:41:18.234Z,81.38
2022-08-03T02:42:18.462Z,81.28
2022-08-03T02:43:19.150Z,81.18
2022-08-03T02:44:18.179Z,81.28
2022-08-03T02:45:18.171Z,81.28
2022-08-03T02:46:18.153Z,81.38
2022-08-03T02:47:18.140Z,81.48
2022-08-03T02:48:18.143Z,81.38
2022-08-03T02:49:40.864Z,81.18
2022-08-03T02:50:19.165Z,81.28
2022-08-03T02:51:18.104Z,81.38
2022-08-03T02:52:18.394Z,81.28
2022-08-03T02:53:18.074Z,81.18
2022-08-03T02:54:18.083Z,81.08
2022-08-03T02:55:18.065Z,81.08
2022-08-03T02:56:18.044Z,81.08
2022-08-03T02:57:18.035Z,81.08
2022-08-03T02:58:18.023Z,81.28
2022-08-03T02:59:18.012Z,81.22
2022-08-03T03:00:28.089Z,81.32
2022-08-03T03:01:19.036Z,81.42
2022-08-03T03:02:18.244Z,81.52
2022-08-03T03:03:17.965Z,81.62
2022-08-03T03:04:17.967Z,81.62
2022-08-03T03:05:54.490Z,81.62
2022-08-03T03:06:19.886Z,81.62
2022-08-03T03:07:17.924Z,81.62
2022-08-03T03:08:20.562Z,81.73
2022-08-03T03:09:18.898Z,81.93
2022-08-03T03:10:17.893Z,82.03
2022-08-03T03:11:17.879Z,82.03
2022-08-03T03:12:18.046Z,82.13
2022-08-03T03:13:17.873Z,82.27
2022-08-03T03:14:17.842Z,82.27
2022-08-03T03:15:18.836Z,82.27
2022-08-03T03:16:17.814Z,82.37
2022-08-03T03:17:17.815Z,82.37
2022-08-03T03:18:22.356Z,82.37
2022-08-03T03:19:17.785Z,82.57
2022-08-03T03:20:29.155Z,82.57
2022-08-03T03:21:18.767Z,82.57
2022-08-03T03:22:18.071Z,82.67
2022-08-03T03:23:17.735Z,82.57
2022-08-03T03:24:17.714Z,82.47
2022-08-03T03:25:17.717Z,82.57
2022-08-03T03:26:17.698Z,82.47
2022-08-03T03:27:17.701Z,82.47
2022-08-03T03:28:17.698Z,82.47
2022-08-03T03:29:18.615Z,82.47
2022-08-03T03:30:17.662Z,82.57
2022-08-03T03:31:17.643Z,82.57
2022-08-03T03:32:17.958Z,82.67
2022-08-03T03:33:17.637Z,82.71
2022-08-03T03:34:17.607Z,82.71
2022-08-03T03:35:17.599Z,82.71
2022-08-03T03:36:17.588Z,82.71
2022-08-03T03:37:17.573Z,82.61
2022-08-03T03:38:17.579Z,82.71
2022-08-03T03:39:17.553Z,82.61
2022-08-03T03:40:17.534Z,82.61
2022-08-03T03:41:17.530Z,82.51
2022-08-03T03:42:17.831Z,82.61
2022-08-03T03:43:17.521Z,82.61
2022-08-03T03:44:17.489Z,82.61
2022-08-03T03:45:17.486Z,82.51
2022-08-03T03:46:17.470Z,82.41
2022-08-03T03:47:17.459Z,82.41
2022-08-03T03:48:18.488Z,82.31
2022-08-03T03:49:17.466Z,82.31
2022-08-03T03:50:17.435Z,82.31
2022-08-03T03:51:17.415Z,82.31
2022-08-03T03:52:17.778Z,82.31
2022-08-03T03:53:17.405Z,82.31
2022-08-03T03:54:17.378Z,82.31
2022-08-03T03:55:17.368Z,82.31
2022-08-03T03:56:17.355Z,82.21
2022-08-03T03:57:17.351Z,82.21
2022-08-03T03:58:17.348Z,82.10
2022-08-03T03:59:17.329Z,82.10
2022-08-03T04:00:17.316Z,82.10
2022-08-03T04:01:17.414Z,81.90
2022-08-03T04:02:17.590Z,81.90
2022-08-03T04:03:17.284Z,81.80
2022-08-03T04:04:17.290Z,81.67
2022-08-03T04:05:17.268Z,81.56
2022-08-03T04:06:17.242Z,80.38
2022-08-03T04:07:17.256Z,78.19
2022-08-03T04:08:18.185Z,75.76
2022-08-03T04:09:17.226Z,73.58
2022-08-03T04:10:17.222Z,71.80
2022-08-03T04:11:17.183Z,70.32
2022-08-03T04:12:17.478Z,68.79
2022-08-03T04:13:17.164Z,67.62
2022-08-03T04:14:17.162Z,66.39
2022-08-03T04:15:17.149Z,65.22
2022-08-03T04:16:17.121Z,64.32
2022-08-03T04:17:17.122Z,63.89
2022-08-03T04:18:17.105Z,63.17
2022-08-03T04:19:21.197Z,62.10
2022-08-03T04:20:18.110Z,61.18
2022-08-03T04:21:17.070Z,60.35
2022-08-03T04:22:17.376Z,60.48
2022-08-03T04:23:17.055Z,60.68
2022-08-03T04:24:17.047Z,59.52
2022-08-03T04:25:17.040Z,58.37
2022-08-03T04:26:17.032Z,57.35
2022-08-03T04:27:17.010Z,56.62
2022-08-03T04:28:30.708Z,56.00
2022-08-03T04:29:17.989Z,55.18
2022-08-03T04:30:16.990Z,54.65
2022-08-03T04:31:16.969Z,53.93
2022-08-03T04:32:17.346Z,53.41
2022-08-03T04:33:16.951Z,52.89
2022-08-03T04:34:16.958Z,52.39
2022-08-03T04:35:16.923Z,51.97
2022-08-03T04:36:16.903Z,51.54
2022-08-03T04:37:16.898Z,51.35
2022-08-03T04:38:16.893Z,51.45
2022-08-03T04:39:16.877Z,51.15
2022-08-03T04:40:16.875Z,50.63
2022-08-03T04:41:17.864Z,50.21
2022-08-03T04:42:16.864Z,49.81
2022-08-03T04:43:16.827Z,49.79
2022-08-03T04:44:16.834Z,49.59
2022-08-03T04:45:16.818Z,49.27
2022-08-03T04:46:16.850Z,49.17
2022-08-03T04:47:16.792Z,48.77
2022-08-03T04:48:16.780Z,48.88
2022-08-03T04:49:16.873Z,49.07
2022-08-03T04:50:21.196Z,49.40
2022-08-03T04:51:16.760Z,49.81
2022-08-03T04:52:17.186Z,50.95
2022-08-03T04:53:16.734Z,53.14
2022-08-03T04:54:17.667Z,55.43
2022-08-03T04:55:16.704Z,57.17
2022-08-03T04:56:16.713Z,58.42
2022-08-03T04:57:22.182Z,60.41
2022-08-03T04:58:17.694Z,62.26
2022-08-03T04:59:16.691Z,63.92
2022-08-03T05:00:16.658Z,65.28
2022-08-03T05:01:16.750Z,66.42
2022-08-03T05:02:17.026Z,67.35
2022-08-03T05:03:20.174Z,67.99
2022-08-03T05:04:17.631Z,68.39
2022-08-03T05:05:17.556Z,68.79
2022-08-03T05:06:16.597Z,68.99
2022-08-03T05:07:17.387Z,69.22
2022-08-03T05:08:16.574Z,69.32
2022-08-03T05:09:45.782Z,69.53
2022-08-03T05:10:17.564Z,69.76
2022-08-03T05:11:16.577Z,70.26
2022-08-03T05:12:16.762Z,70.89
2022-08-03T05:13:16.524Z,71.20
2022-08-03T05:14:17.460Z,71.30
2022-08-03T05:15:17.488Z,71.20
2022-08-03T05:16:16.513Z,71.20
2022-08-03T05:17:16.483Z,71.16
2022-08-03T05:18:16.465Z,71.36
2022-08-03T05:19:16.466Z,71.36
2022-08-03T05:20:18.978Z,71.26
2022-08-03T05:21:16.432Z,71.36
2022-08-03T05:22:16.715Z,71.36
2022-08-03T05:23:16.416Z,71.66
2022-08-03T05:24:16.390Z,71.47
2022-08-03T05:25:19.243Z,71.56
2022-08-03T05:26:16.399Z,71.47
2022-08-03T05:27:16.374Z,71.23
2022-08-03T05:28:16.371Z,71.13
2022-08-03T05:29:16.338Z,70.93
2022-08-03T05:30:27.223Z,70.93
2022-08-03T05:31:17.317Z,70.73
2022-08-03T05:32:16.369Z,70.69
2022-08-03T05:33:16.291Z,70.59
2022-08-03T05:34:16.302Z,70.59
2022-08-03T05:35:57.187Z,70.59
2022-08-03T05:36:17.277Z,70.56
2022-08-03T05:37:16.268Z,70.46
2022-08-03T05:38:28.088Z,70.46
2022-08-03T05:39:18.201Z,70.50
2022-08-03T05:40:17.170Z,70.79
2022-08-03T05:41:21.710Z,70.79
2022-08-03T05:42:17.543Z,71.09
2022-08-03T05:43:16.175Z,70.89
2022-08-03T05:44:17.144Z,70.76
2022-08-03T05:45:16.172Z,70.96
2022-08-03T05:46:16.170Z,70.76
2022-08-03T05:47:16.144Z,70.79
2022-08-03T05:48:16.147Z,70.69
2022-08-03T05:49:16.159Z,70.79
2022-08-03T05:50:16.109Z,71.66
2022-08-03T05:51:16.093Z,71.36
2022-08-03T05:52:16.863Z,71.06
2022-08-03T05:53:16.083Z,71.36
2022-08-03T05:54:16.063Z,71.46
2022-08-03T05:55:16.053Z,71.50
2022-08-03T05:56:16.918Z,71.59
2022-08-03T05:57:16.042Z,71.56
2022-08-03T05:58:16.015Z,71.56
2022-08-03T05:59:37.123Z,71.66
2022-08-03T06:00:17.023Z,71.77
2022-08-03T06:01:16.170Z,71.86
2022-08-03T06:02:16.254Z,71.96
2022-08-03T06:03:15.966Z,71.86
2022-08-03T06:04:15.966Z,71.77
2022-08-03T06:05:15.957Z,71.86
2022-08-03T06:06:15.948Z,71.63
2022-08-03T06:07:15.920Z,71.43
2022-08-03T06:08:15.915Z,71.03
2022-08-03T06:09:15.895Z,70.83
2022-08-03T06:10:36.528Z,70.83
2022-08-03T06:11:16.889Z,70.69
2022-08-03T06:12:16.120Z,70.50
2022-08-03T06:13:16.815Z,70.19
2022-08-03T06:14:15.845Z,69.46
2022-08-03T06:15:15.832Z,69.36
2022-08-03T06:16:15.851Z,69.06
2022-08-03T06:17:15.801Z,68.46
2022-08-03T06:18:15.808Z,68.26
2022-08-03T06:19:15.779Z,67.72
2022-08-03T06:20:15.800Z,67.82
2022-08-03T06:21:16.330Z,67.82
2022-08-03T06:22:15.950Z,67.52
2022-08-03T06:23:17.599Z,67.63
2022-08-03T06:24:15.731Z,67.52
2022-08-03T06:25:15.739Z,67.22
2022-08-03T06:26:15.724Z,66.93
2022-08-03T06:27:15.705Z,67.13
2022-08-03T06:28:42.421Z,66.93
2022-08-03T06:29:16.688Z,67.13
2022-08-03T06:30:19.351Z,67.29
2022-08-03T06:31:16.646Z,67.29
2022-08-03T06:32:15.762Z,67.09
2022-08-03T06:33:15.679Z,66.59
2022-08-03T06:34:34.303Z,66.69
2022-08-03T06:35:16.633Z,66.69
2022-08-03T06:36:15.599Z,66.46
2022-08-03T06:37:15.791Z,66.49
2022-08-03T06:38:15.580Z,66.46
2022-08-03T06:39:15.563Z,66.26
2022-08-03T06:40:15.551Z,66.46
2022-08-03T06:41:16.537Z,66.26
2022-08-03T06:42:16.346Z,66.46
2022-08-03T06:43:16.060Z,66.36
2022-08-03T06:44:15.509Z,65.86
2022-08-03T06:45:15.502Z,65.66
2022-08-03T06:46:15.495Z,66.56
2022-08-03T06:47:15.485Z,66.33
2022-08-03T06:48:15.469Z,66.03
2022-08-03T06:49:15.560Z,65.63
2022-08-03T06:50:17.037Z,65.83
2022-08-03T06:51:15.445Z,65.73
2022-08-03T06:52:15.423Z,65.43
2022-08-03T06:53:19.771Z,65.83
2022-08-03T06:54:15.405Z,65.73
2022-08-03T06:55:16.345Z,65.50
2022-08-03T06:56:15.391Z,65.30
2022-08-03T06:57:15.369Z,65.20
2022-08-03T06:58:15.366Z,64.40
2022-08-03T07:00:06.230Z,64.50
2022-08-03T07:00:16.350Z,64.80
2022-08-03T07:01:15.350Z,65.00
2022-08-03T07:02:19.446Z,65.20
2022-08-03T07:03:15.298Z,65.00
2022-08-03T07:04:15.298Z,65.00
2022-08-03T07:05:15.282Z,65.07
2022-08-03T07:06:16.241Z,64.67
2022-08-03T07:07:16.231Z,64.17
2022-08-03T07:08:15.251Z,64.27
2022-08-03T07:09:15.235Z,63.94
2022-08-03T07:10:15.225Z,64.24
2022-08-03T07:11:15.227Z,63.64
2022-08-03T07:12:15.407Z,63.74
2022-08-03T07:13:15.190Z,64.04
2022-08-03T07:14:15.184Z,63.94
2022-08-03T07:15:20.418Z,63.64
2022-08-03T07:16:16.180Z,63.64
2022-08-03T07:17:15.153Z,63.94
2022-08-03T07:18:15.143Z,63.51
2022-08-03T07:19:15.116Z,63.21
2022-08-03T07:20:15.142Z,62.81
2022-08-03T07:21:15.101Z,63.01
2022-08-03T07:22:15.218Z,62.68
2022-08-03T07:23:18.970Z,62.59
2022-08-03T07:24:15.071Z,62.18
2022-08-03T07:25:15.052Z,61.99
2022-08-03T07:26:15.061Z,62.08
2022-08-03T07:27:15.043Z,62.08
2022-08-03T07:28:15.026Z,61.88
2022-08-03T07:29:15.494Z,61.99
2022-08-03T07:30:15.022Z,62.29
2022-08-03T07:31:14.994Z,62.26
2022-08-03T07:32:15.311Z,62.45
2022-08-03T07:33:14.962Z,62.55
2022-08-03T07:34:14.965Z,62.45
2022-08-03T07:35:24.505Z,61.96
2022-08-03T07:36:15.930Z,61.85
2022-08-03T07:37:14.927Z,61.36
2022-08-03T07:38:14.945Z,61.06
2022-08-03T07:39:17.692Z,61.43
2022-08-03T07:40:14.892Z,61.93
2022-08-03T07:41:14.880Z,61.23
2022-08-03T07:42:15.108Z,60.13
2022-08-03T07:43:14.880Z,60.93
2022-08-03T07:44:14.843Z,60.83
2022-08-03T07:45:16.845Z,60.53
2022-08-03T07:46:14.860Z,59.70
2022-08-03T07:47:22.199Z,59.70
2022-08-03T07:48:15.802Z,59.41
2022-08-03T07:49:14.828Z,59.51
2022-08-03T07:50:14.785Z,59.48
2022-08-03T07:51:14.786Z,58.69
2022-08-03T07:52:14.914Z,58.48
2022-08-03T07:53:14.757Z,58.09
2022-08-03T07:54:14.730Z,57.79
2022-08-03T07:55:14.750Z,57.56
2022-08-03T07:56:14.713Z,57.17
2022-08-03T07:57:14.713Z,57.36
2022-08-03T07:58:14.695Z,57.06
2022-08-03T07:59:14.695Z,57.26
2022-08-03T08:00:14.679Z,57.93
2022-08-03T08:01:15.042Z,57.24
2022-08-03T08:02:14.821Z,56.04
2022-08-03T08:03:15.113Z,56.32
2022-08-03T08:04:14.631Z,56.02
2022-08-03T08:05:14.629Z,55.82
2022-08-03T08:06:14.600Z,55.91
2022-08-03T08:07:14.593Z,55.49
2022-08-03T08:08:14.581Z,55.69
2022-08-03T08:09:14.572Z,55.69
2022-08-03T08:10:14.588Z,55.49
2022-08-03T08:11:14.545Z,55.79
2022-08-03T08:12:15.032Z,55.59
2022-08-03T08:13:14.524Z,55.40
2022-08-03T08:14:14.513Z,55.49
2022-08-03T08:15:14.504Z,55.59
2022-08-03T08:16:14.510Z,55.40
2022-08-03T08:17:14.487Z,55.19
2022-08-03T08:18:14.476Z,54.90
2022-08-03T08:19:14.457Z,55.10
2022-08-03T08:20:14.465Z,55.69
2022-08-03T08:21:14.575Z,55.40
2022-08-03T08:22:14.563Z,55.19
2022-08-03T08:23:37.745Z,53.98
2022-08-03T08:24:18.166Z,53.98
2022-08-03T08:25:14.398Z,54.38
2022-08-03T08:26:15.403Z,54.77
2022-08-03T08:27:15.327Z,54.97
2022-08-03T08:28:31.034Z,54.97
2022-08-03T08:29:15.349Z,53.98
2022-08-03T08:30:18.732Z,53.85
2022-08-03T08:31:14.338Z,54.55
2022-08-03T08:32:15.535Z,54.55
2022-08-03T08:33:23.389Z,54.05
2022-08-03T08:34:15.318Z,54.02
2022-08-03T08:35:14.291Z,54.52
2022-08-03T08:36:15.500Z,53.92
2022-08-03T08:37:14.264Z,54.02
2022-08-03T08:38:14.288Z,53.63
2022-08-03T08:39:15.668Z,53.63
2022-08-03T08:40:15.184Z,53.83
2022-08-03T08:41:14.235Z,53.41
2022-08-03T08:42:14.365Z,53.11
2022-08-03T08:43:14.265Z,53.50
2022-08-03T08:44:15.138Z,53.01
2022-08-03T08:45:15.123Z,52.22
2022-08-03T08:46:22.818Z,52.39
2022-08-03T08:47:16.097Z,53.08
2022-08-03T08:48:14.169Z,52.09
2022-08-03T08:49:14.183Z,51.77
2022-08-03T08:50:27.205Z,52.17
2022-08-03T08:51:16.059Z,52.17
2022-08-03T08:52:24.826Z,51.77
2022-08-03T08:53:17.626Z,51.57
2022-08-03T08:54:14.090Z,51.57
2022-08-03T08:55:14.071Z,51.77
2022-08-03T08:56:14.053Z,52.07
2022-08-03T08:57:40.491Z,51.87
2022-08-03T08:58:15.023Z,51.87
2022-08-03T08:59:15.015Z,52.07
2022-08-03T09:00:14.025Z,51.84
2022-08-03T09:01:15.058Z,51.84
2022-08-03T09:02:13.984Z,50.85
2022-08-03T09:03:13.974Z,50.95
2022-08-03T09:04:14.970Z,50.95
2022-08-03T09:05:13.972Z,50.43
2022-08-03T09:06:13.979Z,50.34
2022-08-03T09:07:20.144Z,50.73
2022-08-03T09:08:14.936Z,50.53
2022-08-03T09:10:00.302Z,50.21
2022-08-03T09:10:15.846Z,50.01
2022-08-03T09:11:13.878Z,49.22
2022-08-03T09:12:38.847Z,48.73
2022-08-03T09:13:14.859Z,49.72
2022-08-03T09:14:39.248Z,48.93
2022-08-03T09:15:17.315Z,48.43
2022-08-03T09:16:13.833Z,48.53
2022-08-03T09:17:17.481Z,48.53
2022-08-03T09:18:13.823Z,49.10
2022-08-03T09:19:13.802Z,48.31
2022-08-03T09:20:13.787Z,47.52
2022-08-03T09:21:30.033Z,47.22
2022-08-03T09:22:14.765Z,47.62
2022-08-03T09:23:59.526Z,47.42
2022-08-03T09:24:31.218Z,47.50
2022-08-03T09:25:24.445Z,47.30
2022-08-03T09:26:14.724Z,46.70
2022-08-03T09:27:13.706Z,46.91
2022-08-03T09:28:13.698Z,47.00
2022-08-03T09:29:15.500Z,46.51
2022-08-03T09:30:19.058Z,46.51
2022-08-03T09:31:15.617Z,46.61
2022-08-03T09:32:14.923Z,46.22
2022-08-03T09:33:13.648Z,45.72
2022-08-03T09:34:13.648Z,45.52
2022-08-03T09:35:13.628Z,45.42
2022-08-03T09:36:13.613Z,45.82
2022-08-03T09:37:13.718Z,46.09
2022-08-03T09:38:14.403Z,46.00
2022-08-03T09:39:13.584Z,45.70
2022-08-03T09:40:13.578Z,45.89
2022-08-03T09:41:13.578Z,46.00
2022-08-03T09:42:14.750Z,45.67
2022-08-03T09:43:13.543Z,44.49
2022-08-03T09:44:24.453Z,45.28
2022-08-03T09:45:14.512Z,44.87
2022-08-03T09:46:13.505Z,44.96
2022-08-03T09:47:13.518Z,45.26
2022-08-03T09:48:13.478Z,45.06
2022-08-03T09:49:13.527Z,44.84
2022-08-03T09:50:13.575Z,44.55
2022-08-03T09:51:33.050Z,43.86
2022-08-03T09:52:37.625Z,43.17
2022-08-03T09:53:14.446Z,42.38
2022-08-03T09:54:20.354Z,42.38
2022-08-03T09:56:30.544Z,41.86
2022-08-03T09:56:33.598Z,41.77
2022-08-03T09:57:14.390Z,41.67
2022-08-03T09:58:13.367Z,41.25
2022-08-03T09:59:13.373Z,41.06
2022-08-03T10:00:13.441Z,40.37
2022-08-03T10:01:23.674Z,40.76
2022-08-03T10:02:14.381Z,40.56
2022-08-03T10:03:13.325Z,40.96
2022-08-03T10:04:13.306Z,40.96
2022-08-03T10:05:19.701Z,40.96
2022-08-03T10:06:14.305Z,41.06
2022-08-03T10:07:13.323Z,40.94
2022-08-03T10:08:13.273Z,40.94
2022-08-03T10:09:13.260Z,40.94
2022-08-03T10:10:30.651Z,40.94
2022-08-03T10:11:14.256Z,41.02
2022-08-03T10:12:13.222Z,40.92
2022-08-03T10:13:13.209Z,41.11
2022-08-03T10:14:13.219Z,41.11
2022-08-03T10:16:21.711Z,41.22
2022-08-03T10:16:23.662Z,41.31
2022-08-03T10:17:14.189Z,41.22
2022-08-03T10:18:13.158Z,41.11
2022-08-03T10:19:13.147Z,40.82
2022-08-03T10:20:13.133Z,40.82
2022-08-03T10:21:13.133Z,41.11
2022-08-03T10:22:13.138Z,41.22
2022-08-03T10:23:13.105Z,40.62
2022-08-03T10:24:13.095Z,40.53
2022-08-03T10:25:13.631Z,40.53
2022-08-03T10:26:13.068Z,40.21
2022-08-03T10:27:13.119Z,40.41
2022-08-03T10:28:13.050Z,40.21
2022-08-03T10:29:13.095Z,40.01
2022-08-03T10:30:13.050Z,39.72
2022-08-03T10:31:13.040Z,40.01
2022-08-03T10:32:13.008Z,40.41
2022-08-03T10:33:49.280Z,40.43
2022-08-03T10:34:13.989Z,41.02
2022-08-03T10:35:19.719Z,40.61
2022-08-03T10:36:13.960Z,40.21
2022-08-03T10:37:13.058Z,40.41
2022-08-03T10:38:12.960Z,40.11
2022-08-03T10:39:16.121Z,39.92
2022-08-03T10:40:16.190Z,39.72
2022-08-03T10:41:13.944Z,39.72
2022-08-03T10:42:14.854Z,39.72
2022-08-03T10:43:12.883Z,39.82
2022-08-03T10:44:12.891Z,40.01
2022-08-03T10:45:12.866Z,40.19
2022-08-03T10:46:12.847Z,40.29
2022-08-03T10:47:12.927Z,40.09
2022-08-03T10:48:12.828Z,40.48
2022-08-03T10:49:12.879Z,40.19
2022-08-03T10:50:12.807Z,39.98
2022-08-03T10:51:12.812Z,40.17
2022-08-03T10:52:32.440Z,39.78
2022-08-03T10:53:14.689Z,39.58
2022-08-03T10:54:12.791Z,39.58
2022-08-03T10:55:12.784Z,39.98
2022-08-03T10:56:12.752Z,39.90
2022-08-03T10:57:14.197Z,40.00
2022-08-03T10:58:12.721Z,39.90
2022-08-03T10:59:17.143Z,39.50
2022-08-03T11:00:13.732Z,39.90
2022-08-03T11:01:12.784Z,39.80
2022-08-03T11:02:12.679Z,39.90
2022-08-03T11:03:12.677Z,39.60
2022-08-03T11:04:16.675Z,39.58
2022-08-03T11:05:12.672Z,39.48
2022-08-03T11:06:12.643Z,39.58
2022-08-03T11:07:12.689Z,39.58
2022-08-03T11:08:12.627Z,39.29
2022-08-03T11:09:12.597Z,38.60
2022-08-03T11:10:12.589Z,38.80
2022-08-03T11:11:12.592Z,39.29
2022-08-03T11:12:12.569Z,39.29
2022-08-03T11:13:12.569Z,39.29
2022-08-03T11:14:12.552Z,38.82
2022-08-03T11:15:12.583Z,38.92
2022-08-03T11:16:18.331Z,38.92
2022-08-03T11:17:13.966Z,39.11
2022-08-03T11:18:12.507Z,39.11
2022-08-03T11:19:12.498Z,39.50
2022-08-03T11:20:12.491Z,39.11
2022-08-03T11:21:12.502Z,39.11
2022-08-03T11:22:12.464Z,39.11
2022-08-03T11:23:12.454Z,39.70
2022-08-03T11:24:12.435Z,39.80
2022-08-03T11:25:54.135Z,39.31
2022-08-03T11:26:13.437Z,39.01
2022-08-03T11:27:12.407Z,38.72
2022-08-03T11:28:12.405Z,38.90
2022-08-03T11:29:12.385Z,39.00
2022-08-03T11:30:12.389Z,38.90
2022-08-03T11:31:27.072Z,38.90
2022-08-03T11:32:17.878Z,38.40
2022-08-03T11:33:13.349Z,38.40
2022-08-03T11:34:12.351Z,38.09
2022-08-03T11:35:12.356Z,38.29
2022-08-03T11:36:12.301Z,37.90
2022-08-03T11:37:12.321Z,38.19
2022-08-03T11:38:12.289Z,38.48
2022-08-03T11:39:12.288Z,38.19
2022-08-03T11:40:12.295Z,38.48
2022-08-03T11:41:12.253Z,38.58
2022-08-03T11:42:12.243Z,38.37
2022-08-03T11:43:12.243Z,38.17
2022-08-03T11:44:12.224Z,38.46
2022-08-03T11:45:12.625Z,38.56
2022-08-03T11:46:12.210Z,38.37
2022-08-03T11:47:12.292Z,38.46
2022-08-03T11:48:12.186Z,38.17
2022-08-03T11:49:12.234Z,37.58
2022-08-03T11:50:12.176Z,37.88
2022-08-03T11:51:12.148Z,38.27
2022-08-03T11:52:12.139Z,37.48
2022-08-03T11:53:12.154Z,37.48
2022-08-03T11:54:12.150Z,37.78
2022-08-03T11:55:12.120Z,37.68
2022-08-03T11:56:12.569Z,37.58
2022-08-03T11:57:12.232Z,37.58
2022-08-03T11:59:16.587Z,37.48
2022-08-03T11:59:20.354Z,37.58
2022-08-03T12:00:13.063Z,37.58
2022-08-03T12:01:12.043Z,37.58
2022-08-03T12:02:12.049Z,37.88
2022-08-03T12:03:12.249Z,37.68
2022-08-03T12:04:12.027Z,37.38
2022-08-03T12:05:12.006Z,37.29
2022-08-03T12:06:11.994Z,37.58
2022-08-03T12:07:12.003Z,37.58
2022-08-03T12:08:12.969Z,37.29
2022-08-03T12:09:11.978Z,37.58
2022-08-03T12:10:11.950Z,37.46
2022-08-03T12:11:11.936Z,37.07
2022-08-03T12:12:11.943Z,37.07
2022-08-03T12:14:30.064Z,37.19
2022-08-03T12:14:48.600Z,37.07
2022-08-03T12:15:12.913Z,37.19
2022-08-03T12:16:11.883Z,37.07
2022-08-03T12:17:11.938Z,37.27
2022-08-03T12:18:11.864Z,38.25
2022-08-03T12:19:11.857Z,37.98
2022-08-03T12:20:11.848Z,38.07
2022-08-03T12:21:11.850Z,38.06
2022-08-03T12:22:11.834Z,37.76
2022-08-03T12:23:11.805Z,36.98
2022-08-03T12:24:11.807Z,36.96
2022-08-03T12:25:11.796Z,37.37
2022-08-03T12:26:11.778Z,37.37
2022-08-03T12:27:11.830Z,37.07
2022-08-03T12:28:28.431Z,37.66
2022-08-03T12:29:12.749Z,37.45
2022-08-03T12:30:11.733Z,37.25
2022-08-03T12:31:11.719Z,37.15
2022-08-03T12:32:11.831Z,37.25
2022-08-03T12:33:11.700Z,37.25
2022-08-03T12:34:11.704Z,37.05
2022-08-03T12:35:11.696Z,36.76
2022-08-03T12:36:11.674Z,36.66
2022-08-03T12:37:28.991Z,36.74
2022-08-03T12:38:12.644Z,36.16
2022-08-03T12:39:11.655Z,36.25
2022-08-03T12:40:15.192Z,36.25
2022-08-03T12:41:12.615Z,36.55
2022-08-03T12:42:11.609Z,36.94
2022-08-03T12:43:11.611Z,37.04
2022-08-03T12:44:11.595Z,36.74
2022-08-03T12:45:11.578Z,36.06
2022-08-03T12:46:11.563Z,36.16
2022-08-03T12:47:11.547Z,36.16
2022-08-03T12:48:11.552Z,36.06
2022-08-03T12:49:11.600Z,36.06
2022-08-03T12:50:11.509Z,36.16
2022-08-03T12:51:11.512Z,36.16
2022-08-03T12:52:11.491Z,35.78